createdAt,value
2023-02-28T00:02:33.019Z,-3.49
2023-02-28T00:05:30.603Z,-3.42
2023-02-28T00:08:28.045Z,-3.31
2023-02-28T00:11:24.868Z,-3.40
2023-02-28T00:14:21.718Z,-3.28
2023-02-28T00:17:18.866Z,-3.30
2023-02-28T00:20:16.967Z,-3.32
2023-02-28T00:23:13.828Z,-3.44
2023-02-28T00:26:10.762Z,-3.42
2023-02-28T00:29:07.591Z,-3.33
2023-02-28T00:32:05.940Z,-3.15
2023-02-28T00:35:03.570Z,-3.23
2023-02-28T00:38:00.486Z,-3.35
2023-02-28T00:40:57.306Z,-3.23
2023-02-28T00:43:54.128Z,-3.28
2023-02-28T00:46:50.944Z,-3.22
2023-02-28T00:49:47.781Z,-3.23
2023-02-28T00:52:45.789Z,-3.15
2023-02-28T00:55:42.641Z,-3.10
2023-02-28T00:58:39.479Z,-3.03
2023-02-28T01:01:36.694Z,-3.21
2023-02-28T01:04:33.858Z,-2.73
2023-02-28T01:07:30.691Z,-2.90
2023-02-28T01:10:32.250Z,-2.78
2023-02-28T01:13:29.090Z,-2.97
2023-02-28T01:16:26.436Z,-2.94
2023-02-28T01:19:23.294Z,-3.01
2023-02-28T01:22:20.100Z,-2.90
2023-02-28T01:25:17.097Z,-3.00
2023-02-28T01:28:14.180Z,-3.05
2023-02-28T01:31:11.499Z,-3.07
2023-02-28T01:34:08.367Z,-2.96
2023-02-28T01:37:05.365Z,-3.07
2023-02-28T01:40:02.198Z,-2.94
2023-02-28T01:42:59.014Z,-2.98
2023-02-28T01:45:58.186Z,-3.23
2023-02-28T01:49:16.254Z,-3.02
2023-02-28T01:52:19.061Z,-3.11
2023-02-28T01:55:19.406Z,-2.89
2023-02-28T01:58:17.000Z,-3.06
2023-02-28T02:01:22.220Z,-2.95
2023-02-28T02:04:20.314Z,-2.75
2023-02-28T02:07:18.115Z,-2.80
2023-02-28T02:10:30.764Z,-2.58
2023-02-28T02:14:12.133Z,-2.77
2023-02-28T02:17:29.276Z,-2.65
2023-02-28T02:21:17.835Z,-2.79
2023-02-28T02:24:49.867Z,-2.76
2023-02-28T02:28:05.709Z,-2.79
2023-02-28T02:31:34.029Z,-2.85
2023-02-28T02:35:12.752Z,-2.79
2023-02-28T02:39:32.379Z,-2.73
2023-02-28T02:42:51.782Z,-2.87
2023-02-28T02:46:03.282Z,-2.97
2023-02-28T02:49:05.303Z,-3.11
2023-02-28T02:52:07.685Z,-3.18
2023-02-28T02:55:06.663Z,-3.11
2023-02-28T02:58:09.334Z,-3.08
2023-02-28T03:01:06.606Z,-3.15
2023-02-28T03:04:23.977Z,-3.37
2023-02-28T03:07:20.954Z,-3.64
2023-02-28T03:10:53.329Z,-3.86
2023-02-28T03:14:24.283Z,-3.78
2023-02-28T03:17:41.926Z,-4.07
2023-02-28T03:21:16.933Z,-4.09
2023-02-28T03:25:06.188Z,-4.03
2023-02-28T03:28:38.636Z,-4.28
2023-02-28T03:31:45.663Z,-3.99
2023-02-28T03:34:55.123Z,-3.91
2023-02-28T03:38:01.535Z,-3.83
2023-02-28T03:41:31.618Z,-4.17
2023-02-28T03:44:36.503Z,-3.63
2023-02-28T03:47:58.082Z,-3.92
2023-02-28T03:51:00.574Z,-4.39
2023-02-28T03:54:10.736Z,-4.42
2023-02-28T03:57:19.630Z,-4.41
2023-02-28T04:00:32.443Z,-4.33
2023-02-28T04:03:29.325Z,-4.30
2023-02-28T04:06:26.692Z,-4.01
2023-02-28T04:09:23.505Z,-3.82
2023-02-28T04:12:20.384Z,-3.91
2023-02-28T04:15:17.232Z,-3.99
2023-02-28T04:18:14.125Z,-3.87
2023-02-28T04:21:11.984Z,-3.66
2023-02-28T04:24:15.205Z,-3.56
2023-02-28T04:27:12.194Z,-3.75
2023-02-28T04:30:10.033Z,-3.81
2023-02-28T04:33:07.181Z,-3.67
2023-02-28T04:36:09.300Z,-3.68
2023-02-28T04:39:06.125Z,-3.87
2023-02-28T04:42:03.009Z,-3.73
2023-02-28T04:44:59.832Z,-3.60
2023-02-28T04:47:56.650Z,-3.62
2023-02-28T04:50:53.654Z,-3.69
2023-02-28T04:53:50.582Z,-3.65
2023-02-28T04:56:49.485Z,-3.35
2023-02-28T04:59:46.404Z,-3.36
2023-02-28T05:02:43.634Z,-3.44
2023-02-28T05:05:40.770Z,-3.34
2023-02-28T05:08:38.325Z,-3.26
2023-02-28T05:11:36.888Z,-3.25
2023-02-28T05:14:33.933Z,-3.13
2023-02-28T05:17:30.889Z,-3.34
2023-02-28T05:20:27.814Z,-3.19
2023-02-28T05:23:25.012Z,-3.23
2023-02-28T05:26:22.754Z,-3.23
2023-02-28T05:29:23.629Z,-3.32
2023-02-28T05:32:20.591Z,-3.09
2023-02-28T05:35:17.669Z,-3.08
2023-02-28T05:38:14.657Z,-3.26
2023-02-28T05:41:12.621Z,-3.04
2023-02-28T05:44:10.056Z,-3.19
2023-02-28T05:47:06.948Z,-3.19
2023-02-28T05:50:05.807Z,-3.05
2023-02-28T05:53:03.210Z,-3.17
2023-02-28T05:56:00.412Z,-3.19
2023-02-28T05:58:57.438Z,-3.12
2023-02-28T06:01:54.421Z,-3.20
2023-02-28T06:04:51.374Z,-3.19
2023-02-28T06:07:48.278Z,-3.28
2023-02-28T06:10:46.031Z,-3.10
2023-02-28T06:13:42.921Z,-3.03
2023-02-28T06:16:39.798Z,-3.00
2023-02-28T06:19:42.406Z,-2.94
2023-02-28T06:22:40.221Z,-3.05
2023-02-28T06:25:37.306Z,-3.15
2023-02-28T06:28:34.362Z,-3.27
2023-02-28T06:31:31.897Z,-3.05
2023-02-28T06:34:29.084Z,-3.10
2023-02-28T06:37:29.001Z,-3.17
2023-02-28T06:40:25.950Z,-3.11
2023-02-28T06:43:24.402Z,-3.10
2023-02-28T06:46:21.637Z,-3.13
2023-02-28T06:49:19.038Z,-2.99
2023-02-28T06:52:16.456Z,-3.03
2023-02-28T06:55:13.875Z,-2.85
2023-02-28T06:58:16.587Z,-3.08
2023-02-28T07:01:15.107Z,-2.97
2023-02-28T07:04:11.961Z,-2.90
2023-02-28T07:07:08.812Z,-2.76
2023-02-28T07:10:06.123Z,-2.79
2023-02-28T07:13:04.379Z,-2.59
2023-02-28T07:16:05.260Z,-2.40
2023-02-28T07:19:02.130Z,-2.49
2023-02-28T07:21:59.153Z,-2.36
2023-02-28T07:24:55.978Z,-2.65
2023-02-28T07:27:52.880Z,-2.80
2023-02-28T07:30:49.719Z,-2.60
2023-02-28T07:33:47.172Z,-2.38
2023-02-28T07:36:44.003Z,-2.49
2023-02-28T07:39:43.196Z,-2.39
2023-02-28T07:42:41.685Z,-2.06
2023-02-28T07:45:38.506Z,-2.23
2023-02-28T07:48:35.457Z,-2.34
2023-02-28T07:51:33.541Z,-1.88
2023-02-28T07:54:30.634Z,-1.58
2023-02-28T07:57:27.569Z,-1.54
2023-02-28T08:00:25.151Z,-1.44
2023-02-28T08:03:24.122Z,-1.22
2023-02-28T08:06:24.029Z,-1.01
2023-02-28T08:09:21.125Z,-0.60
2023-02-28T08:12:18.008Z,-1.00
2023-02-28T08:15:14.887Z,-1.13
2023-02-28T08:18:11.734Z,-1.25
2023-02-28T08:21:10.709Z,-1.25
2023-02-28T08:24:07.874Z,-1.38
2023-02-28T08:27:04.742Z,-1.41
2023-02-28T08:30:01.577Z,-1.24
2023-02-28T08:32:58.591Z,-1.13
2023-02-28T08:35:57.484Z,-0.75
2023-02-28T08:38:54.369Z,-1.19
2023-02-28T08:42:02.091Z,-0.13
2023-02-28T08:45:04.228Z,0.11
2023-02-28T08:48:01.088Z,1.50
2023-02-28T08:51:08.066Z,0.38
2023-02-28T08:54:05.549Z,3.16
2023-02-28T08:57:03.120Z,1.12
2023-02-28T08:59:59.962Z,-0.35
2023-02-28T09:02:56.808Z,1.33
2023-02-28T09:05:59.635Z,4.31
2023-02-28T09:09:05.198Z,4.48
2023-02-28T09:12:03.033Z,1.20
2023-02-28T09:14:59.891Z,1.63
2023-02-28T09:17:56.722Z,-0.04
2023-02-28T09:20:53.869Z,0.17
2023-02-28T09:23:52.334Z,-0.06
2023-02-28T09:26:56.809Z,-0.43
2023-02-28T09:30:00.284Z,1.08
2023-02-28T09:32:57.455Z,0.11
2023-02-28T09:36:04.793Z,0.34
2023-02-28T09:39:02.099Z,1.18
2023-02-28T09:41:59.142Z,0.56
2023-02-28T09:44:58.982Z,3.68
2023-02-28T09:48:05.351Z,2.32
2023-02-28T09:51:31.746Z,2.14
2023-02-28T09:54:33.993Z,7.65
2023-02-28T09:57:41.110Z,6.68
2023-02-28T10:00:41.444Z,3.27
2023-02-28T10:04:08.801Z,5.84
2023-02-28T10:07:36.572Z,2.65
2023-02-28T10:10:45.113Z,3.36
2023-02-28T10:14:06.870Z,2.21
2023-02-28T10:17:15.637Z,4.61
2023-02-28T10:20:20.553Z,3.79
2023-02-28T10:23:36.496Z,8.34
2023-02-28T10:26:34.135Z,6.71
2023-02-28T10:29:33.896Z,4.62
2023-02-28T10:32:37.099Z,2.72
2023-02-28T10:35:34.822Z,6.85
2023-02-28T10:38:37.862Z,5.89
2023-02-28T10:41:37.271Z,5.80
2023-02-28T10:44:34.166Z,3.71
2023-02-28T10:47:31.219Z,5.29
2023-02-28T10:50:43.522Z,5.46
2023-02-28T10:54:01.054Z,5.47
2023-02-28T10:57:19.263Z,5.52
2023-02-28T11:00:23.852Z,6.44
2023-02-28T11:03:33.512Z,6.15
2023-02-28T11:06:33.971Z,5.66
2023-02-28T11:09:36.201Z,7.12
2023-02-28T11:12:52.304Z,6.13
2023-02-28T11:15:59.932Z,6.16
2023-02-28T11:18:58.305Z,5.52
2023-02-28T11:22:02.710Z,6.41
2023-02-28T11:25:07.591Z,5.79
2023-02-28T11:28:39.079Z,5.98
2023-02-28T11:31:35.958Z,6.64
2023-02-28T11:34:33.940Z,6.55
2023-02-28T11:37:32.859Z,6.16
2023-02-28T11:40:39.410Z,6.42
2023-02-28T11:44:12.088Z,6.02
2023-02-28T11:47:38.524Z,5.64
2023-02-28T11:50:46.350Z,6.55
2023-02-28T11:54:36.772Z,6.16
2023-02-28T11:58:21.601Z,7.10
2023-02-28T12:01:40.338Z,6.56
2023-02-28T12:05:07.848Z,6.96
2023-02-28T12:08:22.049Z,6.59
2023-02-28T12:11:59.853Z,5.74
2023-02-28T12:15:46.707Z,6.02
2023-02-28T12:19:35.153Z,6.26
2023-02-28T12:23:07.209Z,5.91
2023-02-28T12:26:26.049Z,5.63
2023-02-28T12:29:43.479Z,5.71
2023-02-28T12:32:50.230Z,5.70
2023-02-28T12:35:58.743Z,6.19
2023-02-28T12:39:05.468Z,5.59
2023-02-28T12:42:30.505Z,5.68
2023-02-28T12:45:44.106Z,4.64
2023-02-28T12:49:02.967Z,4.94
2023-02-28T12:52:02.772Z,4.98
2023-02-28T12:55:47.553Z,5.16
2023-02-28T12:58:51.083Z,5.06
2023-02-28T13:02:28.574Z,4.72
2023-02-28T13:06:11.345Z,5.75
2023-02-28T13:09:17.969Z,6.28
2023-02-28T13:12:17.538Z,6.10
2023-02-28T13:15:22.826Z,4.98
2023-02-28T13:18:46.724Z,5.69
2023-02-28T13:21:45.901Z,5.71
2023-02-28T13:25:01.176Z,5.40
2023-02-28T13:28:01.804Z,5.06
2023-02-28T13:31:00.668Z,4.40
2023-02-28T13:34:00.584Z,3.92
2023-02-28T13:37:18.848Z,3.86
2023-02-28T13:40:24.292Z,3.85
2023-02-28T13:43:34.616Z,4.55
2023-02-28T13:46:54.726Z,4.32
2023-02-28T13:49:52.826Z,4.68
2023-02-28T13:53:44.853Z,3.81
2023-02-28T13:57:13.607Z,3.93
2023-02-28T14:00:28.881Z,3.66
2023-02-28T14:04:11.579Z,3.90
2023-02-28T14:07:10.934Z,3.48
2023-02-28T14:10:16.872Z,3.38
2023-02-28T14:13:48.239Z,3.39
2023-02-28T14:16:47.930Z,3.28
2023-02-28T14:19:51.006Z,2.97
2023-02-28T14:23:05.648Z,3.11
2023-02-28T14:26:11.554Z,3.24
2023-02-28T14:29:53.565Z,2.98
2023-02-28T14:33:35.840Z,2.83
2023-02-28T14:36:42.610Z,2.49
2023-02-28T14:39:44.706Z,2.58
2023-02-28T14:42:56.575Z,2.50
2023-02-28T14:46:07.071Z,2.59
2023-02-28T14:49:08.196Z,2.38
2023-02-28T14:52:10.913Z,2.13
2023-02-28T14:55:17.637Z,2.35
2023-02-28T14:58:27.602Z,1.83
2023-02-28T15:01:26.829Z,2.03
2023-02-28T15:04:28.545Z,1.88
2023-02-28T15:07:29.572Z,1.61
2023-02-28T15:10:28.625Z,1.35
2023-02-28T15:13:41.656Z,1.51
2023-02-28T15:16:43.418Z,1.47
2023-02-28T15:19:45.663Z,1.31
2023-02-28T15:22:43.697Z,1.29
2023-02-28T15:25:42.097Z,1.34
2023-02-28T15:28:39.077Z,1.35
2023-02-28T15:31:56.478Z,1.31
2023-02-28T15:34:55.215Z,0.97
2023-02-28T15:38:17.519Z,0.95
2023-02-28T15:41:31.198Z,0.96
2023-02-28T15:44:35.384Z,0.97
2023-02-28T15:47:33.667Z,0.91
2023-02-28T15:50:31.930Z,0.83
2023-02-28T15:53:38.244Z,0.80
2023-02-28T15:56:43.814Z,0.85
2023-02-28T15:59:46.330Z,1.05
2023-02-28T16:02:45.609Z,0.80
2023-02-28T16:05:42.847Z,0.79
2023-02-28T16:08:39.852Z,0.53
2023-02-28T16:11:43.054Z,0.77
2023-02-28T16:14:41.308Z,0.48
2023-02-28T16:17:40.564Z,0.36
2023-02-28T16:20:37.778Z,0.33
2023-02-28T16:23:34.618Z,0.48
2023-02-28T16:26:31.731Z,0.32
2023-02-28T16:29:33.193Z,0.04
2023-02-28T16:32:30.913Z,0.04
2023-02-28T16:35:27.948Z,-0.05
2023-02-28T16:38:25.923Z,0.04
2023-02-28T16:41:27.180Z,-0.10
2023-02-28T16:44:35.064Z,-0.11
2023-02-28T16:47:33.791Z,-0.24
2023-02-28T16:50:33.593Z,-0.43
2023-02-28T16:53:30.435Z,-0.17
2023-02-28T16:56:27.340Z,-0.17
2023-02-28T16:59:27.352Z,-0.26
2023-02-28T17:02:24.425Z,-0.40
2023-02-28T17:05:22.075Z,-0.41
2023-02-28T17:08:19.599Z,-0.43
2023-02-28T17:11:17.176Z,-0.47
2023-02-28T17:14:14.438Z,-0.42
2023-02-28T17:17:22.047Z,-0.55
2023-02-28T17:20:25.739Z,-0.67
2023-02-28T17:23:22.660Z,-0.60
2023-02-28T17:26:22.180Z,-0.72
2023-02-28T17:29:22.537Z,-0.60
2023-02-28T17:32:20.018Z,-0.63
2023-02-28T17:35:17.833Z,-0.88
2023-02-28T17:38:20.449Z,-0.84
2023-02-28T17:41:17.387Z,-0.73
2023-02-28T17:44:14.207Z,-0.85
2023-02-28T17:47:13.715Z,-0.89
2023-02-28T17:50:21.221Z,-0.78
2023-02-28T17:53:18.038Z,-0.84
2023-02-28T17:56:26.755Z,-0.99
2023-02-28T17:59:23.605Z,-0.96
2023-02-28T18:02:20.503Z,-1.05
2023-02-28T18:05:17.448Z,-1.08
2023-02-28T18:08:15.493Z,-1.21
2023-02-28T18:11:18.297Z,-1.13
2023-02-28T18:14:16.499Z,-1.04
2023-02-28T18:17:13.502Z,-1.16
2023-02-28T18:20:11.718Z,-1.29
2023-02-28T18:23:08.567Z,-1.22
2023-02-28T18:26:09.089Z,-1.29
2023-02-28T18:29:07.186Z,-1.13
2023-02-28T18:32:06.005Z,-0.87
2023-02-28T18:35:02.876Z,-1.18
2023-02-28T18:37:59.870Z,-1.11
2023-02-28T18:41:00.979Z,-1.15
2023-02-28T18:43:58.811Z,-1.17
2023-02-28T18:46:56.648Z,-1.35
2023-02-28T18:49:53.659Z,-1.16
2023-02-28T18:52:51.377Z,-1.40
2023-02-28T18:55:48.567Z,-1.44
2023-02-28T18:58:45.448Z,-1.40
2023-02-28T19:01:42.748Z,-1.21
2023-02-28T19:04:42.040Z,-1.31
2023-02-28T19:07:39.211Z,-1.28
2023-02-28T19:10:41.773Z,-1.26
2023-02-28T19:13:39.003Z,-1.38
2023-02-28T19:16:36.286Z,-1.47
2023-02-28T19:19:33.189Z,-1.38
2023-02-28T19:22:30.038Z,-1.56
2023-02-28T19:25:26.920Z,-1.48
2023-02-28T19:28:24.623Z,-1.45
2023-02-28T19:31:25.848Z,-1.68
2023-02-28T19:34:22.794Z,-1.72
2023-02-28T19:37:19.640Z,-1.62
2023-02-28T19:40:17.189Z,-1.77
2023-02-28T19:43:14.118Z,-1.76
2023-02-28T19:46:12.386Z,-1.63
2023-02-28T19:49:09.263Z,-1.86
2023-02-28T19:52:06.224Z,-1.45
2023-02-28T19:55:03.198Z,-1.57
2023-02-28T19:58:00.022Z,-1.79
2023-02-28T20:00:57.206Z,-1.78
2023-02-28T20:03:54.049Z,-1.61
2023-02-28T20:06:51.402Z,-1.51
2023-02-28T20:09:48.877Z,-1.76
2023-02-28T20:12:45.695Z,-1.77
2023-02-28T20:15:42.528Z,-1.66
2023-02-28T20:18:41.097Z,-1.47
2023-02-28T20:21:37.946Z,-1.86
2023-02-28T20:24:34.762Z,-1.92
2023-02-28T20:27:32.693Z,-1.73
2023-02-28T20:30:29.766Z,-1.76
2023-02-28T20:33:26.686Z,-1.95
2023-02-28T20:36:23.616Z,-2.01
2023-02-28T20:39:21.872Z,-1.93
2023-02-28T20:42:19.826Z,-2.07
2023-02-28T20:45:16.726Z,-2.09
2023-02-28T20:48:13.541Z,-2.20
2023-02-28T20:51:11.373Z,-2.07
2023-02-28T20:54:11.110Z,-2.19
2023-02-28T20:57:07.974Z,-2.22
2023-02-28T21:00:12.065Z,-2.39
2023-02-28T21:03:08.909Z,-2.54
2023-02-28T21:06:06.350Z,-2.62
2023-02-28T21:09:08.591Z,-2.63
2023-02-28T21:12:05.607Z,-2.67
2023-02-28T21:15:02.424Z,-2.76
2023-02-28T21:17:59.449Z,-2.72
2023-02-28T21:21:09.311Z,-2.63
2023-02-28T21:24:06.968Z,-2.73
2023-02-28T21:27:03.925Z,-2.76
2023-02-28T21:30:00.780Z,-2.75
2023-02-28T21:32:57.968Z,-2.66
2023-02-28T21:36:05.596Z,-2.61
2023-02-28T21:39:08.245Z,-2.59
2023-02-28T21:42:05.104Z,-2.57
2023-02-28T21:45:03.032Z,-2.55
2023-02-28T21:47:59.853Z,-2.75
2023-02-28T21:50:58.751Z,-2.46
2023-02-28T21:53:58.918Z,-2.54
2023-02-28T21:56:55.967Z,-2.61
2023-02-28T21:59:52.905Z,-2.56
2023-02-28T22:02:49.782Z,-2.48
2023-02-28T22:05:46.700Z,-2.62
2023-02-28T22:08:47.274Z,-2.62
2023-02-28T22:11:44.100Z,-2.45
2023-02-28T22:14:41.640Z,-2.46
2023-02-28T22:17:38.512Z,-2.52
2023-02-28T22:20:35.327Z,-2.51
2023-02-28T22:23:33.185Z,-2.18
2023-02-28T22:26:30.998Z,-2.87
2023-02-28T22:29:28.253Z,-2.95
2023-02-28T22:32:25.115Z,-2.71
2023-02-28T22:35:22.169Z,-2.69
2023-02-28T22:38:19.842Z,-2.74
2023-02-28T22:41:18.332Z,-2.97
2023-02-28T22:44:16.375Z,-2.51
2023-02-28T22:47:13.314Z,-2.54
2023-02-28T22:50:11.305Z,-2.25
2023-02-28T22:53:08.160Z,-2.55
2023-02-28T22:56:06.267Z,-2.66
2023-02-28T22:59:03.789Z,-2.73
2023-02-28T23:02:00.662Z,-3.02
2023-02-28T23:04:57.500Z,-2.86
2023-02-28T23:07:54.331Z,-2.92
2023-02-28T23:10:51.961Z,-2.70
2023-02-28T23:13:58.389Z,-2.97
2023-02-28T23:16:55.509Z,-2.85
2023-02-28T23:19:52.392Z,-2.75
2023-02-28T23:22:50.638Z,-2.67
2023-02-28T23:25:47.511Z,-2.72
2023-02-28T23:28:44.390Z,-2.88
2023-02-28T23:31:42.191Z,-2.81
2023-02-28T23:34:39.032Z,-2.79
2023-02-28T23:37:38.338Z,-2.87
2023-02-28T23:40:35.165Z,-2.78
2023-02-28T23:43:31.999Z,-2.77
2023-02-28T23:46:29.306Z,-2.56
2023-02-28T23:49:26.290Z,-2.72
2023-02-28T23:52:23.308Z,-2.66
2023-02-28T23:55:20.619Z,-2.60
2023-02-28T23:58:17.481Z,-2.66
